Keyser, WV (26726)

12:30 PM EDT en Octubre 02, 2014 (GMT -0400)
Stony Run ,2 MI SW | Change Station
CLOSE
Current Station
Estación meteorológica personal
Location: Keyser, WV
Altura: 967 ft
Estaciones meteorológicas cercanas

Alt 967 ft 39.42 °N, 79.01 °W | Updated 1 minute ago

Parcialmente nublado
Parcialmente nublado
72.7 ° F
Sensación térmica 75 ° F
N
2.0
Viento Variable Viento desde Este
Gusts 7.0 mph

Hoy
Alta -- | Baja -- ° F
--% Posibilidad de precipitaciones
Ayer
Alta -- | Baja -- ° F
Precip. -- pul
7:13 AM 6:56 PM
Cuarto creciente, 60% visible
Presión 30.15 pul
Visibilidad 10.0 Millas
Nubes Nubes dispersas 2500 ft
Índice de calor 75 ° F
Punto de rocío 61 ° F
Humedad 67%
Precipitaciones 0.00 pul
Espesor de la nieve No disponible.
UV 5.0 de una escala de 12
Polen 3.40 de una escala de 12
Calidad del aire No disponible.
Flu Activity No disponible.
METAR KCBE 021616Z AUTO 15003KT 10SM SCT025 22/13 A3015 RMK AO1

More Conditions Fewer Conditions

Presión 30.15 pul
Visibilidad 10.0 Millas
Nubes Nubes dispersas 2500 ft
Índice de calor 75 ° F
Punto de rocío 61 ° F
Humedad 67%
Precipitaciones 0.00 pul
Espesor de la nieve No disponible.
UV 5.0 de una escala de 12
Polen 3.40 de una escala de 12
Calidad del aire No disponible.
Flu Activity No disponible.
METAR KCBE 021616Z AUTO 15003KT 10SM SCT025 22/13 A3015 RMK AO1

More Conditions Fewer Conditions

10-Day Weather Forecast

Almanac

Astronomía

Oct. 02, 2014 Salida Puesta
Hora real 7:13 AM EDT 6:56 PM EDT
Crepúsculo civil 6:46 AM EDT 7:23 PM EDT
Crepúsculo náutico 6:15 AM EDT 7:54 PM EDT
Crepúsculo astronómico 5:43 AM EDT 8:26 PM EDT
Luna 3:00 PM EDT 12:29 AM EDT
Horas de luz 12h 37m
Horas de luz
11h 43m
Tomorrow will be 2m 33s shorter.
Cuarto creciente, 60% of the Moon is Illuminated
Hoy
Cuarto creciente
Oct 8
Luna llena
Oct 15
Cuarto menguante
Oct 23
Nueva
Oct 30
Cuarto creciente

Extremos de hoy

Máximos del estado Bajos del estado

Community

WunderPhotos

Upload Photos

1,758,294 ¡fotos cargadas!

WunderBlogs® & News

Nearby

Grosos de nieve

Estación Profundido Altura
No tenemos constancia de nieve nueva.

Actividad de terremotos

Ciudad Distance Mag. Tiempo y dato
No hay informes recientes de la actividad sísmica.
Magnitud mínima muestra es 2,5.

Temperaturas de aguas costeras

Lugar Temperatura
Sin partes meteorológicos de las estaciones

Estaciones meteorológicas cercanas